EGXU

RAF Linton-On-Ouse Airport

Linton-On-Ouse, United Kingdom
METAR EGXU 211250Z AUTO 27008KT 9999 // OVC027/// 21/13 Q1014
Observed Flight Rules
Jul-21 @ 12:50 UTC (an hour ago) Marginal Visual Flight Rules
Wind Visibility Clouds
270° at 8 knots 10,000+ meters
  • Overcast at 2,700' AGL
Temperatures Readings
Current 21°C / 70°F
Dewpoint 13°C / 55°F
Humidity 60%
Altimeter 29.94" Hg
Pressure 1014 hPa
Elevation 16
METAR EGXU 211250Z AUTO 27008KT 9999 // OVC027/// 21/13 Q1014
Observed Flight Rules
Jul-21 @ 12:50 UTC
(an hour ago)
MVFR
Wind Visibility
270° at 8 knots 10,000+ meters
Clouds
  • Overcast at 2,700' AGL
Temperature Dewpoint
21°C / 70°F 13°C / 55°F
Humidity Altimeter Pressure
60% 29.94" Hg 1014 hPa